Time;durP1;ratioP1;P1;durP2;ratioP2;P2;SDS_P1;SDS_P2;PMS_P1;PMS_P2;Temp;Humidity;BMP_temperature;BMP_pressure;BME280_temperature;BME280_humidity;BME280_pressure;Samples;Min_cycle;Max_cycle;Signal;HPM_P1;HPM_P2
2022/05/16 00:03:03;;;;;;;1999.90;999.90;;;;;;;15.16;54.17;100527.22;8694941;33;20186;-72
2022/05/16 00:08:07;;;;;;;1999.90;999.90;;;;;;;15.08;54.01;100514.44;8724118;33;20153;-72
2022/05/16 00:13:11;;;;;;;1999.90;999.90;;;;;;;15.00;54.41;100507.09;8709052;33;20650;-72
2022/05/16 00:18:14;;;;;;;1999.90;999.90;;;;;;;14.96;54.67;100496.72;8744042;33;20244;-72
2022/05/16 00:23:17;;;;;;;1999.90;999.90;;;;;;;14.93;53.85;100489.75;8745915;33;21160;-72
2022/05/16 00:28:21;;;;;;;1999.90;999.90;;;;;;;14.83;54.43;100481.66;8734086;33;21031;-72
2022/05/16 00:33:25;;;;;;;1999.90;999.90;;;;;;;14.80;54.83;100473.00;8723695;33;20246;-72
2022/05/16 00:38:28;;;;;;;1999.90;999.90;;;;;;;14.81;54.84;100477.44;8733988;33;20180;-72
2022/05/16 00:43:48;;;;;;;1999.90;999.90;;;;;;;14.83;54.64;100487.09;8729201;33;20282;-72
2022/05/16 00:48:51;;;;;;;1999.90;999.90;;;;;;;14.95;54.36;100486.91;8723612;33;20148;-72
2022/05/16 00:53:58;;;;;;;1999.90;999.90;;;;;;;14.84;54.38;100487.97;8717067;33;20275;-72
2022/05/16 00:59:03;;;;;;;1999.90;999.90;;;;;;;14.57;55.39;100497.72;8724430;33;20708;-72
2022/05/16 01:09:27;;;;;;;1999.90;999.90;;;;;;;14.71;55.59;100477.47;8735035;33;20194;-72
2022/05/16 01:14:48;;;;;;;1999.90;999.90;;;;;;;14.83;55.20;100468.16;8748408;33;20223;-72
2022/05/16 01:19:52;;;;;;;1999.90;999.90;;;;;;;14.55;55.37;100469.16;8695814;33;20271;-72
2022/05/16 01:25:00;;;;;;;1999.90;999.90;;;;;;;14.37;55.55;100459.09;8723343;33;20153;-72
2022/05/16 01:30:04;;;;;;;1999.90;999.90;;;;;;;14.26;56.00;100459.28;8715972;33;20251;-72
2022/05/16 01:35:09;;;;;;;1999.90;999.90;;;;;;;14.24;55.47;100458.56;8692883;33;20190;-71
2022/05/16 01:40:14;;;;;;;1999.90;999.90;;;;;;;14.23;55.80;100450.56;8712990;33;20181;-71
2022/05/16 01:45:17;;;;;;;1999.90;999.90;;;;;;;14.13;55.96;100446.06;8741025;33;20701;-71
2022/05/16 01:50:21;;;;;;;1999.90;999.90;;;;;;;14.14;56.04;100438.81;8725981;33;20159;-72
2022/05/16 01:55:25;;;;;;;1999.90;999.90;;;;;;;14.08;56.07;100436.69;8720407;33;20996;-71
2022/05/16 02:00:30;;;;;;;1999.90;999.90;;;;;;;14.18;55.75;100426.72;8707079;33;20215;-71
2022/05/16 02:05:34;;;;;;;1999.90;999.90;;;;;;;14.05;55.87;100424.34;8691932;33;20160;-71
2022/05/16 02:10:39;;;;;;;1999.90;999.90;;;;;;;14.04;55.80;100427.16;8728113;33;20252;-71
2022/05/16 02:15:45;;;;;;;1999.90;999.90;;;;;;;14.15;55.80;100421.59;8732734;33;20666;-71
2022/05/16 02:20:48;;;;;;;1999.90;999.90;;;;;;;14.24;55.57;100422.59;8720971;33;20148;-71
2022/05/16 02:25:52;;;;;;;1999.90;999.90;;;;;;;14.28;55.07;100419.41;8686499;33;20221;-71
2022/05/16 02:30:57;;;;;;;1999.90;999.90;;;;;;;14.25;55.19;100416.16;8731028;33;20149;-71
2022/05/16 02:36:00;;;;;;;1999.90;999.90;;;;;;;14.14;55.30;100411.78;8670060;33;20574;-71
2022/05/16 02:41:04;;;;;;;1999.90;999.90;;;;;;;14.03;55.56;100407.41;8705046;33;20216;-71
2022/05/16 02:46:07;;;;;;;1999.90;999.90;;;;;;;13.87;55.60;100399.06;8715385;33;20452;-71
2022/05/16 02:51:10;;;;;;;1999.90;999.90;;;;;;;13.88;55.99;100398.94;8713965;33;20186;-71
2022/05/16 03:03:21;;;;;;;1999.90;999.90;;;;;;;13.84;55.90;100377.75;8695618;33;20145;-71
2022/05/16 03:08:25;;;;;;;1999.90;999.90;;;;;;;13.76;56.08;100375.78;8705462;33;20882;-72
2022/05/16 03:13:27;;;;;;;1999.90;999.90;;;;;;;13.65;56.12;100371.41;8715858;33;20653;-72
2022/05/16 03:18:33;;;;;;;1999.90;999.90;;;;;;;13.59;56.25;100368.44;8691924;33;20160;-72
2022/05/16 03:23:36;;;;;;;1999.90;999.90;;;;;;;13.64;56.24;100360.75;8725381;33;20165;-72
2022/05/16 03:28:39;;;;;;;1999.90;999.90;;;;;;;13.62;55.92;100365.44;8698292;33;20218;-72
2022/05/16 03:33:44;;;;;;;1999.90;999.90;;;;;;;13.69;55.67;100377.38;8696121;33;20256;-72
2022/05/16 03:44:07;;;;;;;1999.90;999.90;;;;;;;13.72;55.60;100344.69;8720698;33;20317;-72
2022/05/16 03:49:12;;;;;;;1999.90;999.90;;;;;;;13.61;55.58;100353.81;8738859;33;20209;-72
2022/05/16 03:54:17;;;;;;;1999.90;999.90;;;;;;;13.67;55.73;100347.81;8695178;33;20172;-72
2022/05/16 03:59:20;;;;;;;1999.90;999.90;;;;;;;13.64;55.46;100347.28;8742229;33;20194;-71
2022/05/16 04:04:25;;;;;;;1999.90;999.90;;;;;;;13.67;55.48;100349.66;8716223;33;20193;-71
2022/05/16 04:09:28;;;;;;;1999.90;999.90;;;;;;;13.75;55.30;100340.84;8723028;33;20148;-71
2022/05/16 04:14:31;;;;;;;1999.90;999.90;;;;;;;13.84;55.17;100353.47;8712434;33;20633;-72
2022/05/16 04:19:36;;;;;;;1999.90;999.90;;;;;;;13.98;54.75;100341.34;8694630;33;20216;-72
2022/05/16 04:24:39;;;;;;;1999.90;999.90;;;;;;;13.94;54.99;100344.34;8748266;33;20148;-72
2022/05/16 04:29:42;;;;;;;1999.90;999.90;;;;;;;13.96;55.09;100335.22;8736477;33;20180;-72
2022/05/16 04:34:47;;;;;;;1999.90;999.90;;;;;;;14.03;54.71;100339.06;8725705;33;20151;-72
2022/05/16 04:39:50;;;;;;;1999.90;999.90;;;;;;;14.09;54.68;100333.06;8713523;33;20147;-71
2022/05/16 04:44:53;;;;;;;1999.90;999.90;;;;;;;14.13;54.45;100331.78;8703241;33;20239;-71
2022/05/16 04:49:57;;;;;;;1999.90;999.90;;;;;;;14.25;54.12;100338.66;8694820;33;20625;-71
2022/05/16 04:55:00;;;;;;;1999.90;999.90;;;;;;;14.40;53.66;100330.97;8741406;33;20498;-71
2022/05/16 05:00:07;;;;;;;1999.90;999.90;;;;;;;14.48;53.78;100338.28;8729795;33;20207;-71
2022/05/16 05:05:13;;;;;;;1999.90;999.90;;;;;;;14.59;53.64;100336.25;8704543;33;20191;-72
2022/05/16 05:15:41;;;;;;;1999.90;999.90;;;;;;;14.79;53.35;100338.81;8696738;33;20635;-71
2022/05/16 05:20:46;;;;;;;1999.90;999.90;;;;;;;14.89;53.18;100338.75;8702414;33;20255;-71
2022/05/16 05:25:49;;;;;;;1999.90;999.90;;;;;;;15.00;52.89;100331.28;8693106;33;20286;-72
2022/05/16 05:30:52;;;;;;;1999.90;999.90;;;;;;;15.19;52.80;100335.69;8721051;33;20314;-71
2022/05/16 05:35:56;;;;;;;1999.90;999.90;;;;;;;15.32;52.38;100340.66;8734561;33;20187;-71
2022/05/16 05:40:59;;;;;;;1999.90;999.90;;;;;;;15.54;51.59;100343.94;8746096;33;20416;-71
2022/05/16 05:46:04;;;;;;;1999.90;999.90;;;;;;;15.77;51.73;100338.81;8744678;33;20605;-71
2022/05/16 05:51:09;;;;;;;1999.90;999.90;;;;;;;16.11;51.26;100339.72;8714545;33;20783;-72
2022/05/16 05:56:14;;;;;;;1999.90;999.90;;;;;;;16.46;50.40;100329.75;8727089;33;20230;-72
2022/05/16 06:01:17;;;;;;;1999.90;999.90;;;;;;;16.71;49.29;100340.66;8724800;33;20132;-72
2022/05/16 06:06:22;;;;;;;1999.90;999.90;;;;;;;16.85;49.08;100331.03;8701214;33;20140;-72
2022/05/16 06:11:28;;;;;;;1999.90;999.90;;;;;;;16.74;48.95;100324.91;8695631;33;20239;-72
2022/05/16 06:16:31;;;;;;;1999.90;999.90;;;;;;;16.82;49.09;100326.78;8704034;33;20633;-73
2022/05/16 06:21:35;;;;;;;1999.90;999.90;;;;;;;16.71;48.66;100325.25;8715617;33;20564;-72
2022/05/16 06:26:38;;;;;;;1999.90;999.90;;;;;;;16.94;48.98;100336.28;8691778;33;20234;-72
2022/05/16 06:31:42;;;;;;;1999.90;999.90;;;;;;;17.28;48.89;100335.38;8737990;33;20692;-73
2022/05/16 06:36:47;;;;;;;1999.90;999.90;;;;;;;17.68;48.29;100328.19;8746709;33;20163;-72
2022/05/16 06:41:50;;;;;;;1999.90;999.90;;;;;;;17.62;47.74;100318.88;8741518;33;20262;-73
2022/05/16 06:46:53;;;;;;;1999.90;999.90;;;;;;;17.75;47.43;100315.63;8691706;33;20246;-73
2022/05/16 06:51:58;;;;;;;1999.90;999.90;;;;;;;17.72;47.40;100309.66;8747388;33;20298;-72
2022/05/16 06:57:01;;;;;;;1999.90;999.90;;;;;;;17.98;47.68;100317.63;8745770;33;20235;-73
2022/05/16 07:02:05;;;;;;;1999.90;999.90;;;;;;;18.29;47.16;100325.84;8740645;33;20156;-73
2022/05/16 07:07:09;;;;;;;1999.90;999.90;;;;;;;18.51;46.14;100313.31;8735506;33;20147;-73
2022/05/16 07:12:12;;;;;;;1999.90;999.90;;;;;;;18.71;46.99;100303.72;8746665;33;20179;-72
2022/05/16 07:17:16;;;;;;;1999.90;999.90;;;;;;;18.87;46.08;100304.63;8699554;33;20243;-73
2022/05/16 07:22:23;;;;;;;1999.90;999.90;;;;;;;19.11;45.68;100301.75;8734886;33;20302;-73
2022/05/16 07:32:47;;;;;;;1999.90;999.90;;;;;;;19.56;44.46;100294.59;8699167;33;20293;-73
2022/05/16 07:37:53;;;;;;;1999.90;999.90;;;;;;;19.59;44.08;100324.19;8695616;33;20341;-72
2022/05/16 07:42:56;;;;;;;1999.90;999.90;;;;;;;19.96;44.04;100319.69;8720602;33;20546;-72
2022/05/16 07:48:03;;;;;;;1999.90;999.90;;;;;;;20.24;43.21;100324.47;8731469;33;20152;-72
2022/05/16 07:53:11;;;;;;;1999.90;999.90;;;;;;;20.49;43.71;100315.00;8742768;33;20634;-72
2022/05/16 07:58:14;;;;;;;1999.90;999.90;;;;;;;20.84;41.94;100306.13;8750125;33;20452;-73
2022/05/16 08:03:20;;;;;;;1999.90;999.90;;;;;;;21.11;42.38;100304.56;8743796;33;20861;-72
2022/05/16 08:13:45;;;;;;;1999.90;999.90;;;;;;;22.08;40.78;100299.25;8721302;33;20678;-73
2022/05/16 08:18:48;;;;;;;1999.90;999.90;;;;;;;22.27;40.18;100310.47;8709802;33;20194;-73
2022/05/16 08:23:53;;;;;;;1999.90;999.90;;;;;;;22.66;40.34;100306.25;8699120;33;20192;-73
2022/05/16 08:28:56;;;;;;;1999.90;999.90;;;;;;;23.21;39.35;100304.28;8702359;33;20661;-73
2022/05/16 08:34:00;;;;;;;1999.90;999.90;;;;;;;23.41;39.61;100310.59;8714098;33;20604;-73
2022/05/16 08:44:35;;;;;;;1999.90;999.90;;;;;;;23.57;39.64;100314.81;8727417;33;20255;-77
2022/05/16 08:49:44;;;;;;;1999.90;999.90;;;;;;;23.51;39.77;100320.31;8694706;33;20318;-77
2022/05/16 08:54:58;;;;;;;1999.90;999.90;;;;;;;23.21;39.85;100315.25;8698471;33;20599;-76
2022/05/16 09:00:09;;;;;;;1999.90;999.90;;;;;;;23.19;40.31;100312.69;8742505;33;20294;-76
2022/05/16 09:05:20;;;;;;;1999.90;999.90;;;;;;;24.01;40.32;100310.56;8723611;33;20467;-77
2022/05/16 09:10:32;;;;;;;1999.90;999.90;;;;;;;24.37;39.05;100308.34;8745510;33;20155;-77
2022/05/16 09:15:49;;;;;;;1999.90;999.90;;;;;;;24.16;38.72;100310.31;8712018;33;20142;-76
2022/05/16 09:21:04;;;;;;;1999.90;999.90;;;;;;;24.57;38.75;100300.88;8761521;33;20136;-74
2022/05/16 09:26:28;;;;;;;1999.90;999.90;;;;;;;24.66;38.61;100305.09;8741467;33;20217;-77
2022/05/16 09:31:39;;;;;;;1999.90;999.90;;;;;;;24.24;39.09;100303.75;8746800;33;20156;-77
2022/05/16 09:36:46;;;;;;;1999.90;999.90;;;;;;;24.31;39.36;100302.66;8744864;33;20242;-77
2022/05/16 09:42:03;;;;;;;1999.90;999.90;;;;;;;24.56;38.90;100312.94;8736264;33;20533;-76
2022/05/16 09:47:24;;;;;;;1999.90;999.90;;;;;;;24.53;38.10;100311.47;8729546;33;20325;-76
2022/05/16 09:52:28;;;;;;;1999.90;999.90;;;;;;;25.23;36.85;100318.06;8747308;33;20811;-78
2022/05/16 09:57:41;;;;;;;1999.90;999.90;;;;;;;25.41;36.55;100315.38;8757592;33;20180;-76
2022/05/16 10:02:56;;;;;;;1999.90;999.90;;;;;;;25.92;36.89;100307.94;8693917;33;20152;-77
2022/05/16 10:08:10;;;;;;;1999.90;999.90;;;;;;;25.85;36.02;100313.53;8690865;33;20667;-77
2022/05/16 10:13:16;;;;;;;1999.90;999.90;;;;;;;25.44;36.80;100308.59;8758431;33;20159;-76
2022/05/16 10:18:22;;;;;;;1999.90;999.90;;;;;;;25.19;37.91;100318.50;8703227;33;20184;-79
2022/05/16 10:23:31;;;;;;;1999.90;999.90;;;;;;;25.17;38.06;100319.78;8739675;33;20159;-76
2022/05/16 10:28:40;;;;;;;1999.90;999.90;;;;;;;26.01;37.52;100321.19;8709413;33;20167;-77
2022/05/16 10:33:46;;;;;;;1999.90;999.90;;;;;;;25.95;36.91;100326.78;8755188;33;20950;-78
2022/05/16 10:38:58;;;;;;;1999.90;999.90;;;;;;;26.04;37.19;100322.66;8701485;33;20291;-78
2022/05/16 10:44:17;;;;;;;1999.90;999.90;;;;;;;26.02;36.33;100330.28;8710230;33;20149;-78
2022/05/16 10:49:21;;;;;;;1999.90;999.90;;;;;;;25.92;36.14;100329.97;8698460;33;20144;-76
2022/05/16 10:54:27;;;;;;;1999.90;999.90;;;;;;;25.05;38.39;100333.41;8720699;33;20194;-77
2022/05/16 10:59:54;;;;;;;1999.90;999.90;;;;;;;25.22;38.88;100339.22;8734723;33;20277;-75
2022/05/16 11:05:12;;;;;;;1999.90;999.90;;;;;;;24.71;38.49;100338.22;8692697;33;20148;-76
2022/05/16 11:10:23;;;;;;;1999.90;999.90;;;;;;;24.53;39.36;100335.34;8692211;33;20156;-75
2022/05/16 11:15:35;;;;;;;1999.90;999.90;;;;;;;23.95;39.92;100335.28;8721477;33;20155;-77
2022/05/16 11:20:42;;;;;;;1999.90;999.90;;;;;;;24.02;40.73;100339.69;8692010;33;20149;-77
2022/05/16 11:25:52;;;;;;;1999.90;999.90;;;;;;;23.91;41.37;100348.56;8721717;33;20207;-75
2022/05/16 11:31:02;;;;;;;1999.90;999.90;;;;;;;23.98;40.76;100343.91;8739053;33;20145;-77
2022/05/16 11:36:14;;;;;;;1999.90;999.90;;;;;;;24.41;39.76;100343.44;8750581;33;20136;-76
2022/05/16 11:41:33;;;;;;;1999.90;999.90;;;;;;;24.77;40.43;100344.75;8710669;33;20335;-77
2022/05/16 11:46:46;;;;;;;1999.90;999.90;;;;;;;25.40;39.39;100343.97;8703059;33;20144;-76
2022/05/16 11:52:36;;;;;;;1999.90;999.90;;;;;;;25.44;39.96;100353.44;8737139;33;20155;-75
2022/05/16 12:03:23;;;;;;;1999.90;999.90;;;;;;;25.62;38.56;100341.66;8704469;33;20183;-77
2022/05/16 12:08:46;;;;;;;1999.90;999.90;;;;;;;25.70;38.59;100330.41;8702629;33;20179;-76
2022/05/16 12:14:23;;;;;;;1999.90;999.90;;;;;;;25.27;38.72;100333.06;8699800;33;20152;-76
2022/05/16 12:19:37;;;;;;;1999.90;999.90;;;;;;;25.17;40.91;100328.03;8690649;33;20683;-76
2022/05/16 12:24:58;;;;;;;1999.90;999.90;;;;;;;25.37;39.69;100328.75;8729204;33;20152;-76
2022/05/16 12:30:06;;;;;;;1999.90;999.90;;;;;;;25.32;40.67;100325.81;8754636;33;20152;-77
2022/05/16 12:35:14;;;;;;;1999.90;999.90;;;;;;;24.73;41.37;100316.84;8719617;33;20222;-76
2022/05/16 12:40:27;;;;;;;1999.90;999.90;;;;;;;24.52;42.07;100312.53;8688103;33;20461;-77
2022/05/16 12:46:23;;;;;;;1999.90;999.90;;;;;;;24.38;41.87;100319.13;8707907;33;20171;-73
2022/05/16 12:51:52;;;;;;;1999.90;999.90;;;;;;;24.37;42.53;100319.31;8696498;33;20163;-76
2022/05/16 12:56:57;;;;;;;1999.90;999.90;;;;;;;24.45;41.77;100328.19;8730912;33;20582;-77
2022/05/16 13:02:12;;;;;;;1999.90;999.90;;;;;;;24.57;42.00;100322.84;8743142;33;20187;-76
2022/05/16 13:07:25;;;;;;;1999.90;999.90;;;;;;;24.50;43.29;100316.56;8701604;33;20205;-76
2022/05/16 13:12:43;;;;;;;1999.90;999.90;;;;;;;24.61;43.00;100310.38;8733331;33;20167;-76
2022/05/16 13:17:53;;;;;;;1999.90;999.90;;;;;;;24.79;44.01;100319.78;8756837;33;20189;-75
2022/05/16 13:22:59;;;;;;;1999.90;999.90;;;;;;;25.04;43.03;100323.50;8762635;33;20595;-76
2022/05/16 13:33:40;;;;;;;1999.90;999.90;;;;;;;24.95;43.23;100316.53;8507686;34;20164;-76
2022/05/16 13:38:46;;;;;;;1999.90;999.90;;;;;;;25.00;42.22;100322.19;8697803;33;20136;-76
2022/05/16 13:43:50;;;;;;;1999.90;999.90;;;;;;;25.30;42.47;100311.44;8759229;33;20140;-76
2022/05/16 13:48:57;;;;;;;1999.90;999.90;;;;;;;25.90;42.14;100318.38;8744914;33;20622;-77
2022/05/16 13:54:15;;;;;;;1999.90;999.90;;;;;;;26.17;43.01;100306.00;8694129;33;20661;-77
2022/05/16 13:59:23;;;;;;;1999.90;999.90;;;;;;;25.79;43.13;100308.94;8706005;33;20443;-76
2022/05/16 14:04:30;;;;;;;1999.90;999.90;;;;;;;25.28;44.29;100310.00;8720372;33;20454;-78
2022/05/16 14:09:43;;;;;;;1999.90;999.90;;;;;;;25.27;44.56;100306.41;8707908;33;20255;-76
2022/05/16 14:14:48;;;;;;;1999.90;999.90;;;;;;;25.87;44.98;100305.91;8697160;33;20145;-77
2022/05/16 14:19:54;;;;;;;1999.90;999.90;;;;;;;25.29;44.30;100307.03;8716862;33;20315;-76
2022/05/16 14:25:06;;;;;;;1999.90;999.90;;;;;;;25.47;44.96;100305.41;8744059;33;20242;-75
2022/05/16 14:30:19;;;;;;;1999.90;999.90;;;;;;;25.57;44.12;100314.81;8745387;33;20187;-77
2022/05/16 14:35:30;;;;;;;1999.90;999.90;;;;;;;25.10;44.75;100324.50;8747158;33;20155;-77
2022/05/16 14:40:42;;;;;;;1999.90;999.90;;;;;;;24.80;45.64;100313.25;8745226;27;20658;-73
2022/05/16 14:51:18;;;;;;;1999.90;999.90;;;;;;;24.45;46.18;100324.59;8684804;33;20199;-73
2022/05/16 14:56:23;;;;;;;1999.90;999.90;;;;;;;24.32;46.02;100325.47;8686512;33;20193;-73
2022/05/16 15:06:48;;;;;;;1999.90;999.90;;;;;;;24.69;45.79;100312.03;8681064;33;20459;-73
2022/05/16 15:11:57;;;;;;;1999.90;999.90;;;;;;;24.37;46.10;100311.09;8672831;33;20651;-72
2022/05/16 15:17:00;;;;;;;1999.90;999.90;;;;;;;24.21;47.46;100315.16;8684134;33;20463;-73
2022/05/16 15:22:06;;;;;;;1999.90;999.90;;;;;;;24.08;48.68;100307.81;8665556;33;20451;-73
2022/05/16 15:27:11;;;;;;;1999.90;999.90;;;;;;;23.90;49.15;100313.13;8647685;33;20192;-73
2022/05/16 15:32:16;;;;;;;1999.90;999.90;;;;;;;23.76;49.03;100310.41;8686401;33;20145;-73
2022/05/16 15:37:22;;;;;;;1999.90;999.90;;;;;;;23.55;48.74;100318.81;8666242;33;20152;-73
2022/05/16 15:42:28;;;;;;;1999.90;999.90;;;;;;;23.39;49.85;100323.69;8678155;33;20248;-73
2022/05/16 15:47:36;;;;;;;1999.90;999.90;;;;;;;23.50;51.00;100322.19;8638155;34;20268;-72
2022/05/16 15:52:39;;;;;;;1999.90;999.90;;;;;;;23.29;49.88;100317.78;8665508;33;20215;-72
2022/05/16 15:57:43;;;;;;;1999.90;999.90;;;;;;;22.82;49.34;100327.78;8675503;33;20624;-72
2022/05/16 16:02:50;;;;;;;1999.90;999.90;;;;;;;22.58;50.39;100339.28;8673066;33;20153;-72
2022/05/16 16:13:26;;;;;;;1999.90;999.90;;;;;;;22.31;50.60;100352.81;8639465;33;20725;-73
2022/05/16 16:18:30;;;;;;;1999.90;999.90;;;;;;;22.07;51.76;100365.06;8612348;34;20153;-72
2022/05/16 16:28:35;;;;;;;1999.90;999.90;;;;;;;21.58;51.68;100366.75;8769482;32;20560;-73
2022/05/16 16:33:39;;;;;;;1999.90;999.90;;;;;;;21.42;52.69;100380.72;8728473;33;20185;-73
2022/05/16 16:38:42;;;;;;;1999.90;999.90;;;;;;;21.26;52.16;100375.53;8696886;33;20187;-73
2022/05/16 16:43:49;;;;;;;1999.90;999.90;;;;;;;21.10;52.63;100382.09;8713996;33;20438;-74
2022/05/16 16:48:54;;;;;;;1999.90;999.90;;;;;;;20.64;53.93;100380.44;8718643;33;20186;-74
2022/05/16 16:59:20;;;;;;;1999.90;999.90;;;;;;;20.29;55.40;100396.53;8685156;33;20246;-73
2022/05/16 17:04:23;;;;;;;1999.90;999.90;;;;;;;19.86;58.20;100396.31;8714167;33;20203;-73
2022/05/16 17:09:26;;;;;;;1999.90;999.90;;;;;;;19.53;60.88;100414.78;8704844;33;20746;-73
2022/05/16 17:14:32;;;;;;;1999.90;999.90;;;;;;;18.94;64.49;100438.97;8692087;33;20887;-73
2022/05/16 17:19:41;;;;;;;1999.90;999.90;;;;;;;18.64;67.17;100444.19;8705264;33;20213;-73
2022/05/16 17:24:45;;;;;;;1999.90;999.90;;;;;;;18.00;71.47;100451.47;8692636;33;20321;-74
2022/05/16 17:29:49;;;;;;;1999.90;999.90;;;;;;;17.71;74.95;100469.09;8679227;33;20237;-73
2022/05/16 17:34:52;;;;;;;1999.90;999.90;;;;;;;17.86;75.42;100461.97;8709114;33;20476;-73
2022/05/16 17:39:55;;;;;;;1999.90;999.90;;;;;;;17.59;77.44;100474.03;8694969;33;20156;-73
2022/05/16 17:45:00;;;;;;;1999.90;999.90;;;;;;;17.35;80.47;100473.97;8676333;33;20291;-74
2022/05/16 17:50:03;;;;;;;1999.90;999.90;;;;;;;17.30;82.55;100490.75;8682131;33;20266;-73
2022/05/16 17:55:08;;;;;;;1999.90;999.90;;;;;;;16.38;89.13;100486.09;8688421;33;20211;-73
2022/05/16 18:00:16;;;;;;;1999.90;999.90;;;;;;;15.90;98.99;100502.63;8686713;33;20144;-72
2022/05/16 18:05:19;;;;;;;1999.90;999.90;;;;;;;15.88;97.59;100515.50;8683741;33;20188;-72
2022/05/16 18:10:23;;;;;;;1999.90;999.90;;;;;;;15.87;97.75;100519.19;8704906;33;20183;-73
2022/05/16 18:15:29;;;;;;;1999.90;999.90;;;;;;;16.20;96.32;100515.91;8701690;33;20448;-73
2022/05/16 18:20:32;;;;;;;1999.90;999.90;;;;;;;15.95;95.70;100526.53;8675929;33;21140;-74
2022/05/16 18:25:35;;;;;;;1999.90;999.90;;;;;;;15.12;95.73;100537.50;8672660;33;20511;-74
2022/05/16 18:30:41;;;;;;;1999.90;999.90;;;;;;;14.91;94.98;100555.81;8690772;33;20167;-75
2022/05/16 18:35:44;;;;;;;1999.90;999.90;;;;;;;14.77;100.00;100539.06;8706296;33;20218;-74
2022/05/16 18:40:56;;;;;;;1999.90;999.90;;;;;;;14.96;100.00;100558.94;8705188;33;20708;-73
2022/05/16 18:51:24;;;;;;;1999.90;999.90;;;;;;;15.61;100.00;100567.88;8696141;33;20461;-73
2022/05/16 18:56:27;;;;;;;1999.90;999.90;;;;;;;15.62;99.27;100579.53;8680620;33;20189;-73
2022/05/16 19:01:34;;;;;;;1999.90;999.90;;;;;;;15.87;97.76;100594.19;8686002;33;20224;-73
2022/05/16 19:06:37;;;;;;;1999.90;999.90;;;;;;;15.94;97.11;100589.88;8680859;33;20609;-74
2022/05/16 19:11:45;;;;;;;1999.90;999.90;;;;;;;15.85;97.28;100594.38;8763240;33;20438;-73
2022/05/16 19:16:51;;;;;;;1999.90;999.90;;;;;;;15.87;97.22;100603.16;8738676;33;20518;-73
2022/05/16 19:21:54;;;;;;;1999.90;999.90;;;;;;;15.79;97.40;100605.78;8715146;33;20463;-72
2022/05/16 19:26:57;;;;;;;1999.90;999.90;;;;;;;15.89;97.14;100614.72;8718699;33;20703;-73
2022/05/16 19:32:03;;;;;;;1999.90;999.90;;;;;;;16.11;96.42;100626.09;8736310;33;20144;-73
2022/05/16 19:37:09;;;;;;;1999.90;999.90;;;;;;;16.31;96.05;100632.25;8761972;33;20194;-74
2022/05/16 19:42:21;;;;;;;1999.90;999.90;;;;;;;16.50;95.24;100648.31;8787941;33;20212;-73
2022/05/16 19:47:26;;;;;;;1999.90;999.90;;;;;;;16.21;95.96;100663.94;8778319;33;20237;-72
2022/05/16 19:52:29;;;;;;;1999.90;999.90;;;;;;;16.41;95.28;100670.13;8810999;33;20417;-72
2022/05/16 19:57:32;;;;;;;1999.90;999.90;;;;;;;16.40;93.93;100677.41;8817816;33;20775;-73
2022/05/16 20:02:37;;;;;;;1999.90;999.90;;;;;;;16.38;94.67;100678.56;8814613;33;21690;-73
2022/05/16 20:07:41;;;;;;;1999.90;999.90;;;;;;;16.34;94.65;100681.56;8811828;33;20197;-73
2022/05/16 20:12:44;;;;;;;1999.90;999.90;;;;;;;16.07;94.79;100690.59;8797272;33;20203;-73
2022/05/16 20:17:48;;;;;;;1999.90;999.90;;;;;;;16.14;94.99;100686.25;8820108;33;20471;-73
2022/05/16 20:28:14;;;;;;;1999.90;999.90;;;;;;;15.98;93.91;100696.06;8834070;33;20185;-73
2022/05/16 20:33:21;;;;;;;1999.90;999.90;;;;;;;15.88;94.64;100696.16;8804629;33;20250;-73
2022/05/16 20:38:25;;;;;;;1999.90;999.90;;;;;;;15.84;93.22;100694.72;8800416;33;20151;-71
2022/05/16 20:43:30;;;;;;;1999.90;999.90;;;;;;;15.99;94.63;100697.75;8780860;33;20190;-72
2022/05/16 20:48:35;;;;;;;1999.90;999.90;;;;;;;16.13;95.17;100697.25;8800980;33;20151;-71
2022/05/16 20:53:38;;;;;;;1999.90;999.90;;;;;;;16.27;94.83;100702.19;8782456;33;20548;-72
2022/05/16 20:58:41;;;;;;;1999.90;999.90;;;;;;;16.31;95.23;100706.28;8781648;33;20376;-72
2022/05/16 21:03:45;;;;;;;1999.90;999.90;;;;;;;16.50;95.10;100709.84;8790287;33;20710;-72
2022/05/16 21:08:48;;;;;;;1999.90;999.90;;;;;;;16.50;95.23;100720.69;8782351;33;20143;-72
2022/05/16 21:14:00;;;;;;;1999.90;999.90;;;;;;;16.58;95.07;100720.78;8819961;33;20661;-71
2022/05/16 21:19:05;;;;;;;1999.90;999.90;;;;;;;16.58;94.67;100724.34;8804069;33;21553;-73
2022/05/16 21:24:09;;;;;;;1999.90;999.90;;;;;;;16.63;95.01;100714.91;8814274;33;20285;-72
2022/05/16 21:29:19;;;;;;;1999.90;999.90;;;;;;;16.64;94.82;100730.16;8787470;33;20144;-73
2022/05/16 21:34:23;;;;;;;1999.90;999.90;;;;;;;16.59;95.04;100727.88;8749512;33;20175;-73
2022/05/16 21:39:26;;;;;;;1999.90;999.90;;;;;;;16.39;93.62;100737.19;8752723;33;20495;-72
2022/05/16 21:49:51;;;;;;;1999.90;999.90;;;;;;;16.55;94.52;100742.78;8776402;33;20860;-73
2022/05/16 21:54:54;;;;;;;1999.90;999.90;;;;;;;16.40;93.94;100744.31;8747203;33;20196;-73
2022/05/16 21:59:57;;;;;;;1999.90;999.90;;;;;;;16.02;92.11;100747.09;8743684;33;20187;-73
2022/05/16 22:05:01;;;;;;;1999.90;999.90;;;;;;;15.96;93.94;100742.25;8745529;33;20450;-73
2022/05/16 22:10:08;;;;;;;1999.90;999.90;;;;;;;15.91;93.48;100758.13;8743244;33;21639;-72
2022/05/16 22:15:12;;;;;;;1999.90;999.90;;;;;;;15.85;92.91;100756.00;8775804;33;20200;-73
2022/05/16 22:20:17;;;;;;;1999.90;999.90;;;;;;;15.64;92.87;100754.41;8747018;33;20183;-73
2022/05/16 22:25:23;;;;;;;1999.90;999.90;;;;;;;15.79;92.44;100757.47;8775569;33;20208;-73
2022/05/16 22:30:26;;;;;;;1999.90;999.90;;;;;;;15.78;93.13;100760.34;8771345;33;20619;-73
2022/05/16 22:35:31;;;;;;;1999.90;999.90;;;;;;;15.86;93.27;100753.16;8723023;33;20255;-73
2022/05/16 22:40:34;;;;;;;1999.90;999.90;;;;;;;15.74;92.80;100759.75;8751721;33;20347;-73
2022/05/16 22:45:36;;;;;;;1999.90;999.90;;;;;;;15.78;92.87;100763.03;8727878;33;20535;-73
2022/05/16 22:50:43;;;;;;;1999.90;999.90;;;;;;;15.66;93.10;100763.25;8746514;33;20238;-73
2022/05/16 22:55:50;;;;;;;1999.90;999.90;;;;;;;15.43;92.04;100770.00;8753321;33;20759;-73
2022/05/16 23:00:53;;;;;;;1999.90;999.90;;;;;;;15.25;91.75;100754.50;8746282;33;20660;-73
2022/05/16 23:05:59;;;;;;;1999.90;999.90;;;;;;;15.19;91.85;100767.72;8761112;33;20329;-73
2022/05/16 23:11:03;;;;;;;1999.90;999.90;;;;;;;15.09;91.69;100772.31;8726255;33;20226;-73
2022/05/16 23:16:06;;;;;;;1999.90;999.90;;;;;;;15.03;92.03;100771.06;8715762;33;20699;-73
2022/05/16 23:21:10;;;;;;;1999.90;999.90;;;;;;;14.88;91.43;100778.72;8763738;33;20215;-73
2022/05/16 23:26:13;;;;;;;1999.90;999.90;;;;;;;14.81;90.96;100785.72;8774091;33;20155;-73
2022/05/16 23:31:16;;;;;;;1999.90;999.90;;;;;;;14.74;91.82;100779.16;8736766;33;20423;-73
2022/05/16 23:36:21;;;;;;;1999.90;999.90;;;;;;;14.56;91.49;100787.13;8764367;33;20301;-73
2022/05/16 23:41:24;;;;;;;1999.90;999.90;;;;;;;14.57;91.52;100784.28;8716210;33;20718;-73
2022/05/16 23:46:27;;;;;;;1999.90;999.90;;;;;;;14.34;91.67;100789.06;8767151;33;20983;-72
2022/05/16 23:51:33;;;;;;;1999.90;999.90;;;;;;;14.27;91.49;100785.19;8723008;33;20237;-73
2022/05/16 23:56:37;;;;;;;1999.90;999.90;;;;;;;14.39;91.04;100785.94;8744383;33;20178;-72
